Kingman, AZ

11:57 PM MST on August 28, 2016 (GMT -0700)
Southeast Kingman | | Change Station

Elev 3584 ft 35.20 °N, 114.00 °W | Updated 2 seconds ago

Clear
Clear
69.8 °F
Feels Like 69.8 °F
N
0.0
Wind Variable Wind from NNW
Gusts 0.0 mph

Today
High -- | Low -- °F
--% Chance of Precip.
Yesterday
High -- | Low -- °F
Precip. -- in
Pressure 29.91 in
Visibility 10.0 miles
Clouds Clear
Dew Point 53 °F
Humidity 55%
Rainfall in
Snow Depth Not available.
6:06 AM 7:07 PM
Waning Crescent, 10% visible
METAR KIGM 290651Z AUTO 16007KT 10SM CLR 21/12 A3012 RMK AO2 SLP129 T02110117 403280144
Pressure 29.91 in
Visibility 10.0 miles
Clouds Clear
Dew Point 53 °F
Humidity 55%
Rainfall in
Snow Depth Not available.
6:06 AM 7:07 PM
Waning Crescent, 10% visible
METAR KIGM 290651Z AUTO 16007KT 10SM CLR 21/12 A3012 RMK AO2 SLP129 T02110117 403280144

10-Day Weather Forecast

Almanac

Astronomy

Aug. 28, 2016 Rise Set
Actual Time
Civil Twilight
Nautical Twilight
Astronomical Twilight
Moon
Length of Visible Light
Length of Day
Tomorrow will be .
, % of the Moon is Illuminated

Today's Extremes

State Highs State Lows

Community

WunderPhotos

Upload Photos

1,935,800 photos uploaded!

WunderBlog® & News

Nearby

Air Quality

  Air Quality AQ Index Pollutant
Not available.

Snow Depth

Station Depth Elevation

Earthquake Activity

City Distance Mag. Time & Date
Minimum magnitude displayed is 2.5.

Coastal Water Temperatures

Place Temperature

Stations

Nearby Weather Stations

Station Location Temp. Windchill Dew Point Humidity Wind Precip. Elev Updated Type
                   

Watches & Warnings

There are currently no watches in effect.